Flight Track Log - Related Links

Times and Time Zones

All times are in EDT time to prevent confusion due to time zone crossing. See the MTN8474 flight status page for this flight to view local times or setup timezone preferences in your user account.

Time Position Orientation Groundspeed Altitude Reporting Facility
EDT Latitude Longitude Course Direction KTS MPH feet Rate Location/Type
Mon 09:04:49 PM 39.3542 -81.4744 291° West 118 136 1,900  Level Indianapolis Center
Mon 09:05:50 PM 39.3697 -81.5167 295° West 128 147 2,900 1,033 Climbing Indianapolis Center
Mon 09:06:51 PM 39.3839 -81.5603 293° West 130 150 4,000 1,033 Climbing Indianapolis Center
Mon 09:07:52 PM 39.3978 -81.6022 293° West 129 148 5,000 976 Climbing Indianapolis Center
Mon 09:08:00 PM 39.4299 -81.7047 290° West  Level FlightAware Approximate
Mon 09:08:54 PM 39.4103 -81.6442 291° West 126 145 6,000  Level Indianapolis Center
Mon 09:09:00 PM 39.4441 -81.7534 291° West  Level FlightAware Approximate
Mon 09:09:55 PM 39.4261 -81.6931 293° West 142 163 6,000  Level Indianapolis Center
Mon 09:10:00 PM 39.4584 -81.8020 291° West  Level FlightAware Approximate
Mon 09:10:56 PM 39.4422 -81.7436 292° West 151 174 6,000  Level Indianapolis Center
Mon 09:11:57 PM 39.4586 -81.7911 294° West 147 169 6,000  Level Indianapolis Center
Mon 09:12:59 PM 39.4750 -81.8408 293° West 149 171 6,000  Level Indianapolis Center
Mon 09:14:00 PM 39.4906 -81.8906 292° West 149 171 6,000 -65 Level Indianapolis Center
Mon 09:14:31 PM 39.5017 -81.9228 294° West 150 173 5,900  Descending Indianapolis Center
Mon 09:15:01 PM 39.5092 -81.9506 289° West 149 171 6,000  Climbing Indianapolis Center
Mon 09:15:32 PM 39.5181 -81.9739 296° West 148 170 5,900  Descending Indianapolis Center
Mon 09:16:02 PM 39.5247 -81.9989 289° West 147 169 6,000  Climbing Indianapolis Center
Mon 09:16:32 PM 39.5325 -82.0247 291° West 148 170 5,900  Descending Indianapolis Center
Mon 09:17:04 PM 39.5419 -82.0483 297° West 149 171 6,000 65 Climbing Indianapolis Center
Mon 09:18:05 PM 39.5550 -82.0981 289° West 146 168 6,000  Level Indianapolis Center
Mon 09:19:06 PM 39.5692 -82.1428 292° West 147 169 6,000  Level Indianapolis Center
Mon 09:20:07 PM 39.5886 -82.2000 294° West 148 170 6,000  Level Indianapolis Center
Mon 09:21:09 PM 39.6028 -82.2483 291° West 144 166 6,000  Level Indianapolis Center
Mon 09:22:10 PM 39.6189 -82.2975 293° West 146 168 6,000 -98 Level Indianapolis Center
Mon 09:23:11 PM 39.6333 -82.3475 291° West 147 169 5,800 -344 Descending Indianapolis Center
Mon 09:24:12 PM 39.6506 -82.3992 293° West 153 176 5,300 -541 Descending Indianapolis Center
Mon 09:25:13 PM 39.6669 -82.4539 291° West 159 183 4,700 -537 Descending Indianapolis Center
Mon 09:26:15 PM 39.6847 -82.5089 293° West 164 189 4,200 -537 Descending Indianapolis Center
Mon 09:27:16 PM 39.7019 -82.5642 292° West 165 190 3,600 -492 Descending Indianapolis Center
Mon 09:28:17 PM 39.7192 -82.6192 292° West 164 189 3,200 -295 Descending Indianapolis Center
Mon 09:29:18 PM 39.7353 -82.6719 292° West 160 184 3,000 -98 Descending Indianapolis Center
Mon 09:30:19 PM 39.7547 -82.7194 298° West 153 176 3,000  Level Indianapolis Center
Mon 09:31:21 PM 39.7753 -82.7664 300° West 150 173 3,000 -98 Level Indianapolis Center
Mon 09:32:22 PM 39.7961 -82.8133 300° West 149 171 2,800 -492 Descending Indianapolis Center
Mon 09:33:23 PM 39.8222 -82.8717 300° West 155 178 2,000 -787 Descending Indianapolis Center
Mon 09:34:24 PM 39.8322 -82.9067 290° West 147 169 1,200 -541 Descending Indianapolis Center
Mon 09:35:25 PM 39.8131 -82.9328 226° Southwest 135 155 900 -295 Descending Indianapolis Center

Login

Don't have an account? Register now (free) for customized features, flight alerts, and more!